sensor_id;sensor_type;location;lat;lon;timestamp;P1;durP1;ratioP1;P2;durP2;ratioP2
18104;SDS011;9179;50.968;3.134;2024-01-30T00:01:31;8.00;;;7.15;;
18104;SDS011;9179;50.968;3.134;2024-01-30T00:03:58;7.05;;;6.45;;
18104;SDS011;9179;50.968;3.134;2024-01-30T00:06:27;7.18;;;6.47;;
18104;SDS011;9179;50.968;3.134;2024-01-30T00:08:54;7.72;;;7.05;;
18104;SDS011;9179;50.968;3.134;2024-01-30T00:11:21;7.82;;;7.03;;
18104;SDS011;9179;50.968;3.134;2024-01-30T00:13:50;7.10;;;6.50;;
18104;SDS011;9179;50.968;3.134;2024-01-30T00:16:20;8.05;;;7.38;;
18104;SDS011;9179;50.968;3.134;2024-01-30T00:18:49;7.82;;;6.68;;
18104;SDS011;9179;50.968;3.134;2024-01-30T00:21:16;7.35;;;6.47;;
18104;SDS011;9179;50.968;3.134;2024-01-30T00:23:44;8.32;;;7.57;;
18104;SDS011;9179;50.968;3.134;2024-01-30T00:26:12;7.72;;;6.68;;
18104;SDS011;9179;50.968;3.134;2024-01-30T00:28:40;8.65;;;7.75;;
18104;SDS011;9179;50.968;3.134;2024-01-30T00:31:07;6.72;;;6.03;;
18104;SDS011;9179;50.968;3.134;2024-01-30T00:33:37;7.65;;;6.47;;
18104;SDS011;9179;50.968;3.134;2024-01-30T00:36:04;8.23;;;7.43;;
18104;SDS011;9179;50.968;3.134;2024-01-30T00:38:32;7.70;;;6.88;;
18104;SDS011;9179;50.968;3.134;2024-01-30T00:41:00;7.43;;;6.60;;
18104;SDS011;9179;50.968;3.134;2024-01-30T00:43:28;8.10;;;7.30;;
18104;SDS011;9179;50.968;3.134;2024-01-30T00:45:56;8.20;;;7.50;;
18104;SDS011;9179;50.968;3.134;2024-01-30T00:48:24;8.07;;;6.68;;
18104;SDS011;9179;50.968;3.134;2024-01-30T00:50:51;7.20;;;6.55;;
18104;SDS011;9179;50.968;3.134;2024-01-30T00:53:18;8.20;;;7.03;;
18104;SDS011;9179;50.968;3.134;2024-01-30T00:55:45;8.45;;;7.55;;
18104;SDS011;9179;50.968;3.134;2024-01-30T00:58:14;8.68;;;6.45;;
18104;SDS011;9179;50.968;3.134;2024-01-30T01:00:41;8.15;;;7.35;;
18104;SDS011;9179;50.968;3.134;2024-01-30T01:03:08;7.93;;;7.10;;
18104;SDS011;9179;50.968;3.134;2024-01-30T01:05:35;8.20;;;7.03;;
18104;SDS011;9179;50.968;3.134;2024-01-30T01:08:02;7.93;;;6.78;;
18104;SDS011;9179;50.968;3.134;2024-01-30T01:10:29;7.47;;;6.78;;
18104;SDS011;9179;50.968;3.134;2024-01-30T01:12:56;8.88;;;7.53;;
18104;SDS011;9179;50.968;3.134;2024-01-30T01:15:24;8.60;;;7.18;;
18104;SDS011;9179;50.968;3.134;2024-01-30T01:17:51;7.47;;;6.72;;
18104;SDS011;9179;50.968;3.134;2024-01-30T01:20:18;9.18;;;7.10;;
18104;SDS011;9179;50.968;3.134;2024-01-30T01:22:46;6.95;;;6.25;;
18104;SDS011;9179;50.968;3.134;2024-01-30T01:25:13;7.85;;;6.65;;
18104;SDS011;9179;50.968;3.134;2024-01-30T01:27:40;7.18;;;6.40;;
18104;SDS011;9179;50.968;3.134;2024-01-30T01:30:08;10.85;;;7.75;;
18104;SDS011;9179;50.968;3.134;2024-01-30T01:32:38;7.22;;;6.53;;
18104;SDS011;9179;50.968;3.134;2024-01-30T01:35:09;8.10;;;7.28;;
18104;SDS011;9179;50.968;3.134;2024-01-30T01:37:36;7.55;;;6.85;;
18104;SDS011;9179;50.968;3.134;2024-01-30T01:40:04;9.30;;;7.53;;
18104;SDS011;9179;50.968;3.134;2024-01-30T01:42:32;7.47;;;6.78;;
18104;SDS011;9179;50.968;3.134;2024-01-30T01:45:00;7.28;;;6.68;;
18104;SDS011;9179;50.968;3.134;2024-01-30T01:47:27;7.05;;;6.45;;
18104;SDS011;9179;50.968;3.134;2024-01-30T01:49:56;7.97;;;7.20;;
18104;SDS011;9179;50.968;3.134;2024-01-30T01:52:23;7.90;;;7.10;;
18104;SDS011;9179;50.968;3.134;2024-01-30T01:54:50;8.90;;;7.07;;
18104;SDS011;9179;50.968;3.134;2024-01-30T01:57:17;10.27;;;8.73;;
18104;SDS011;9179;50.968;3.134;2024-01-30T01:59:45;7.47;;;6.88;;
18104;SDS011;9179;50.968;3.134;2024-01-30T02:02:12;8.02;;;7.22;;
18104;SDS011;9179;50.968;3.134;2024-01-30T02:04:41;9.05;;;7.28;;
18104;SDS011;9179;50.968;3.134;2024-01-30T02:07:09;7.72;;;6.90;;
18104;SDS011;9179;50.968;3.134;2024-01-30T02:09:37;9.02;;;7.03;;
18104;SDS011;9179;50.968;3.134;2024-01-30T02:12:04;8.13;;;7.35;;
18104;SDS011;9179;50.968;3.134;2024-01-30T02:14:32;8.23;;;7.43;;
18104;SDS011;9179;50.968;3.134;2024-01-30T02:16:59;9.10;;;6.97;;
18104;SDS011;9179;50.968;3.134;2024-01-30T02:19:26;8.77;;;7.88;;
18104;SDS011;9179;50.968;3.134;2024-01-30T02:21:54;9.48;;;7.68;;
18104;SDS011;9179;50.968;3.134;2024-01-30T02:24:21;10.63;;;8.23;;
18104;SDS011;9179;50.968;3.134;2024-01-30T02:26:48;9.18;;;8.18;;
18104;SDS011;9179;50.968;3.134;2024-01-30T02:29:15;8.77;;;7.93;;
18104;SDS011;9179;50.968;3.134;2024-01-30T02:31:42;8.45;;;7.65;;
18104;SDS011;9179;50.968;3.134;2024-01-30T02:34:11;8.65;;;7.40;;
18104;SDS011;9179;50.968;3.134;2024-01-30T02:36:38;8.82;;;7.70;;
18104;SDS011;9179;50.968;3.134;2024-01-30T02:39:06;7.63;;;6.85;;
18104;SDS011;9179;50.968;3.134;2024-01-30T02:41:33;8.05;;;7.10;;
18104;SDS011;9179;50.968;3.134;2024-01-30T02:44:00;8.75;;;7.55;;
18104;SDS011;9179;50.968;3.134;2024-01-30T02:46:27;8.27;;;7.53;;
18104;SDS011;9179;50.968;3.134;2024-01-30T02:48:54;9.20;;;8.25;;
18104;SDS011;9179;50.968;3.134;2024-01-30T02:51:21;10.38;;;7.70;;
18104;SDS011;9179;50.968;3.134;2024-01-30T02:53:48;8.07;;;7.28;;
18104;SDS011;9179;50.968;3.134;2024-01-30T02:56:16;9.30;;;8.05;;
18104;SDS011;9179;50.968;3.134;2024-01-30T02:58:43;8.05;;;7.32;;
18104;SDS011;9179;50.968;3.134;2024-01-30T03:01:10;8.50;;;7.10;;
18104;SDS011;9179;50.968;3.134;2024-01-30T03:03:37;7.88;;;7.03;;
18104;SDS011;9179;50.968;3.134;2024-01-30T03:06:05;8.80;;;7.50;;
18104;SDS011;9179;50.968;3.134;2024-01-30T03:08:32;8.38;;;7.07;;
18104;SDS011;9179;50.968;3.134;2024-01-30T03:11:00;7.93;;;7.07;;
18104;SDS011;9179;50.968;3.134;2024-01-30T03:13:28;7.97;;;7.22;;
18104;SDS011;9179;50.968;3.134;2024-01-30T03:15:55;8.52;;;7.38;;
18104;SDS011;9179;50.968;3.134;2024-01-30T03:18:22;8.07;;;7.38;;
18104;SDS011;9179;50.968;3.134;2024-01-30T03:20:49;10.48;;;8.18;;
18104;SDS011;9179;50.968;3.134;2024-01-30T03:23:16;10.00;;;7.97;;
18104;SDS011;9179;50.968;3.134;2024-01-30T03:25:43;9.60;;;7.53;;
18104;SDS011;9179;50.968;3.134;2024-01-30T03:28:10;9.73;;;8.02;;
18104;SDS011;9179;50.968;3.134;2024-01-30T03:30:39;8.15;;;7.45;;
18104;SDS011;9179;50.968;3.134;2024-01-30T03:33:05;9.25;;;7.72;;
18104;SDS011;9179;50.968;3.134;2024-01-30T03:35:32;8.65;;;7.80;;
18104;SDS011;9179;50.968;3.134;2024-01-30T03:37:59;8.80;;;7.75;;
18104;SDS011;9179;50.968;3.134;2024-01-30T03:40:26;7.30;;;6.60;;
18104;SDS011;9179;50.968;3.134;2024-01-30T03:42:53;9.48;;;8.48;;
18104;SDS011;9179;50.968;3.134;2024-01-30T03:45:20;7.43;;;6.75;;
18104;SDS011;9179;50.968;3.134;2024-01-30T03:47:48;8.30;;;7.50;;
18104;SDS011;9179;50.968;3.134;2024-01-30T03:50:15;8.80;;;7.90;;
18104;SDS011;9179;50.968;3.134;2024-01-30T03:52:42;8.70;;;7.78;;
18104;SDS011;9179;50.968;3.134;2024-01-30T03:55:09;10.93;;;7.30;;
18104;SDS011;9179;50.968;3.134;2024-01-30T03:57:36;8.75;;;7.43;;
18104;SDS011;9179;50.968;3.134;2024-01-30T04:00:03;8.93;;;8.02;;
18104;SDS011;9179;50.968;3.134;2024-01-30T04:02:31;8.48;;;7.60;;
18104;SDS011;9179;50.968;3.134;2024-01-30T04:04:59;8.30;;;7.50;;
18104;SDS011;9179;50.968;3.134;2024-01-30T04:07:26;8.57;;;7.68;;
18104;SDS011;9179;50.968;3.134;2024-01-30T04:09:54;8.15;;;7.43;;
18104;SDS011;9179;50.968;3.134;2024-01-30T04:12:21;8.40;;;7.38;;
18104;SDS011;9179;50.968;3.134;2024-01-30T04:14:48;8.60;;;7.55;;
18104;SDS011;9179;50.968;3.134;2024-01-30T04:17:15;9.68;;;7.45;;
18104;SDS011;9179;50.968;3.134;2024-01-30T04:19:41;9.57;;;7.90;;
18104;SDS011;9179;50.968;3.134;2024-01-30T04:22:10;9.40;;;8.50;;
18104;SDS011;9179;50.968;3.134;2024-01-30T04:24:37;8.40;;;7.55;;
18104;SDS011;9179;50.968;3.134;2024-01-30T04:27:04;9.00;;;7.40;;
18104;SDS011;9179;50.968;3.134;2024-01-30T04:29:30;8.30;;;7.50;;
18104;SDS011;9179;50.968;3.134;2024-01-30T04:31:59;9.23;;;7.03;;
18104;SDS011;9179;50.968;3.134;2024-01-30T04:34:26;9.32;;;8.38;;
18104;SDS011;9179;50.968;3.134;2024-01-30T04:36:53;10.00;;;7.20;;
18104;SDS011;9179;50.968;3.134;2024-01-30T04:39:21;9.40;;;7.03;;
18104;SDS011;9179;50.968;3.134;2024-01-30T04:41:48;11.07;;;7.60;;
18104;SDS011;9179;50.968;3.134;2024-01-30T04:44:15;7.22;;;6.53;;
18104;SDS011;9179;50.968;3.134;2024-01-30T04:46:42;7.32;;;6.63;;
18104;SDS011;9179;50.968;3.134;2024-01-30T04:49:09;8.80;;;6.55;;
18104;SDS011;9179;50.968;3.134;2024-01-30T04:51:36;9.00;;;7.57;;
18104;SDS011;9179;50.968;3.134;2024-01-30T04:54:02;8.18;;;6.47;;
18104;SDS011;9179;50.968;3.134;2024-01-30T04:56:31;8.43;;;6.20;;
18104;SDS011;9179;50.968;3.134;2024-01-30T04:58:59;8.13;;;7.03;;
18104;SDS011;9179;50.968;3.134;2024-01-30T05:01:26;9.27;;;6.47;;
18104;SDS011;9179;50.968;3.134;2024-01-30T05:03:53;7.97;;;7.22;;
18104;SDS011;9179;50.968;3.134;2024-01-30T05:06:26;8.73;;;7.35;;
18104;SDS011;9179;50.968;3.134;2024-01-30T05:08:53;8.00;;;6.80;;
18104;SDS011;9179;50.968;3.134;2024-01-30T05:11:20;9.55;;;7.53;;
18104;SDS011;9179;50.968;3.134;2024-01-30T05:13:48;7.20;;;6.60;;
18104;SDS011;9179;50.968;3.134;2024-01-30T05:16:15;8.65;;;7.80;;
18104;SDS011;9179;50.968;3.134;2024-01-30T05:18:42;8.77;;;7.88;;
18104;SDS011;9179;50.968;3.134;2024-01-30T05:21:10;7.80;;;7.10;;
18104;SDS011;9179;50.968;3.134;2024-01-30T05:23:37;7.88;;;7.10;;
18104;SDS011;9179;50.968;3.134;2024-01-30T05:26:04;8.77;;;7.05;;
18104;SDS011;9179;50.968;3.134;2024-01-30T05:28:31;7.65;;;6.63;;
18104;SDS011;9179;50.968;3.134;2024-01-30T05:30:59;8.60;;;6.72;;
18104;SDS011;9179;50.968;3.134;2024-01-30T05:33:26;8.95;;;7.43;;
18104;SDS011;9179;50.968;3.134;2024-01-30T05:35:53;8.63;;;6.55;;
18104;SDS011;9179;50.968;3.134;2024-01-30T05:38:20;7.85;;;7.15;;
18104;SDS011;9179;50.968;3.134;2024-01-30T05:40:47;8.48;;;6.97;;
18104;SDS011;9179;50.968;3.134;2024-01-30T05:43:14;10.65;;;7.70;;
18104;SDS011;9179;50.968;3.134;2024-01-30T05:45:41;7.93;;;7.07;;
18104;SDS011;9179;50.968;3.134;2024-01-30T05:48:09;9.57;;;7.68;;
18104;SDS011;9179;50.968;3.134;2024-01-30T05:50:36;7.97;;;7.13;;
18104;SDS011;9179;50.968;3.134;2024-01-30T05:53:03;9.15;;;7.20;;
18104;SDS011;9179;50.968;3.134;2024-01-30T05:55:30;9.40;;;7.50;;
18104;SDS011;9179;50.968;3.134;2024-01-30T05:57:57;8.10;;;6.93;;
18104;SDS011;9179;50.968;3.134;2024-01-30T06:00:24;7.53;;;6.10;;
18104;SDS011;9179;50.968;3.134;2024-01-30T06:02:51;7.35;;;6.65;;
18104;SDS011;9179;50.968;3.134;2024-01-30T06:05:19;7.50;;;6.43;;
18104;SDS011;9179;50.968;3.134;2024-01-30T06:07:46;8.50;;;7.70;;
18104;SDS011;9179;50.968;3.134;2024-01-30T06:10:13;8.30;;;7.10;;
18104;SDS011;9179;50.968;3.134;2024-01-30T06:12:40;7.97;;;7.28;;
18104;SDS011;9179;50.968;3.134;2024-01-30T06:15:07;7.95;;;7.15;;
18104;SDS011;9179;50.968;3.134;2024-01-30T06:17:35;8.65;;;7.57;;
18104;SDS011;9179;50.968;3.134;2024-01-30T06:20:02;7.25;;;6.65;;
18104;SDS011;9179;50.968;3.134;2024-01-30T06:22:31;8.30;;;6.85;;
18104;SDS011;9179;50.968;3.134;2024-01-30T06:24:58;7.38;;;6.60;;
18104;SDS011;9179;50.968;3.134;2024-01-30T06:27:25;8.13;;;7.35;;
18104;SDS011;9179;50.968;3.134;2024-01-30T06:29:52;9.52;;;7.38;;
18104;SDS011;9179;50.968;3.134;2024-01-30T06:32:19;7.90;;;7.20;;
18104;SDS011;9179;50.968;3.134;2024-01-30T06:34:46;9.80;;;6.57;;
18104;SDS011;9179;50.968;3.134;2024-01-30T06:37:12;7.72;;;7.03;;
18104;SDS011;9179;50.968;3.134;2024-01-30T06:39:41;8.00;;;6.88;;
18104;SDS011;9179;50.968;3.134;2024-01-30T06:42:08;7.05;;;6.47;;
18104;SDS011;9179;50.968;3.134;2024-01-30T06:44:35;7.75;;;6.97;;
18104;SDS011;9179;50.968;3.134;2024-01-30T06:47:02;7.35;;;6.65;;
18104;SDS011;9179;50.968;3.134;2024-01-30T06:49:29;9.88;;;8.15;;
18104;SDS011;9179;50.968;3.134;2024-01-30T06:51:56;8.35;;;6.45;;
18104;SDS011;9179;50.968;3.134;2024-01-30T06:54:23;10.75;;;7.28;;
18104;SDS011;9179;50.968;3.134;2024-01-30T06:56:51;8.77;;;7.40;;
18104;SDS011;9179;50.968;3.134;2024-01-30T06:59:18;8.18;;;7.20;;
18104;SDS011;9179;50.968;3.134;2024-01-30T07:01:45;10.18;;;7.65;;
18104;SDS011;9179;50.968;3.134;2024-01-30T07:04:12;9.00;;;7.80;;
18104;SDS011;9179;50.968;3.134;2024-01-30T07:06:39;7.68;;;6.85;;
18104;SDS011;9179;50.968;3.134;2024-01-30T07:09:06;11.18;;;7.90;;
18104;SDS011;9179;50.968;3.134;2024-01-30T07:11:34;9.57;;;8.20;;
18104;SDS011;9179;50.968;3.134;2024-01-30T07:14:02;10.88;;;8.23;;
18104;SDS011;9179;50.968;3.134;2024-01-30T07:16:29;12.02;;;7.78;;
18104;SDS011;9179;50.968;3.134;2024-01-30T07:18:57;9.60;;;7.43;;
18104;SDS011;9179;50.968;3.134;2024-01-30T07:21:24;8.85;;;7.05;;
18104;SDS011;9179;50.968;3.134;2024-01-30T07:23:53;9.48;;;8.70;;
18104;SDS011;9179;50.968;3.134;2024-01-30T07:26:20;8.30;;;7.32;;
18104;SDS011;9179;50.968;3.134;2024-01-30T07:28:47;9.88;;;7.93;;
18104;SDS011;9179;50.968;3.134;2024-01-30T07:31:16;8.60;;;6.95;;
18104;SDS011;9179;50.968;3.134;2024-01-30T07:33:45;8.00;;;6.57;;
18104;SDS011;9179;50.968;3.134;2024-01-30T07:36:12;11.30;;;7.90;;
18104;SDS011;9179;50.968;3.134;2024-01-30T07:38:39;9.23;;;7.68;;
18104;SDS011;9179;50.968;3.134;2024-01-30T07:41:06;9.25;;;6.85;;
18104;SDS011;9179;50.968;3.134;2024-01-30T07:43:33;9.32;;;6.55;;
18104;SDS011;9179;50.968;3.134;2024-01-30T07:46:01;10.00;;;7.60;;
18104;SDS011;9179;50.968;3.134;2024-01-30T07:48:29;7.47;;;6.78;;
18104;SDS011;9179;50.968;3.134;2024-01-30T07:50:56;9.32;;;6.03;;
18104;SDS011;9179;50.968;3.134;2024-01-30T07:53:23;5.65;;;4.97;;
18104;SDS011;9179;50.968;3.134;2024-01-30T07:55:50;6.75;;;4.85;;
18104;SDS011;9179;50.968;3.134;2024-01-30T07:58:18;4.55;;;4.15;;
18104;SDS011;9179;50.968;3.134;2024-01-30T08:00:45;6.05;;;4.95;;
18104;SDS011;9179;50.968;3.134;2024-01-30T08:03:12;5.05;;;4.55;;
18104;SDS011;9179;50.968;3.134;2024-01-30T08:05:42;4.72;;;3.60;;
18104;SDS011;9179;50.968;3.134;2024-01-30T08:08:09;5.07;;;3.70;;
18104;SDS011;9179;50.968;3.134;2024-01-30T08:10:36;5.65;;;3.72;;
18104;SDS011;9179;50.968;3.134;2024-01-30T08:13:03;6.50;;;4.22;;
18104;SDS011;9179;50.968;3.134;2024-01-30T08:15:31;4.32;;;3.28;;
18104;SDS011;9179;50.968;3.134;2024-01-30T08:17:58;3.28;;;2.60;;
18104;SDS011;9179;50.968;3.134;2024-01-30T08:20:25;3.58;;;3.28;;
18104;SDS011;9179;50.968;3.134;2024-01-30T08:22:53;6.90;;;3.70;;
18104;SDS011;9179;50.968;3.134;2024-01-30T08:25:20;4.05;;;3.65;;
18104;SDS011;9179;50.968;3.134;2024-01-30T08:27:47;4.40;;;3.38;;
18104;SDS011;9179;50.968;3.134;2024-01-30T08:30:14;4.32;;;2.70;;
18104;SDS011;9179;50.968;3.134;2024-01-30T08:32:42;4.50;;;1.95;;
18104;SDS011;9179;50.968;3.134;2024-01-30T08:35:09;3.75;;;2.00;;
18104;SDS011;9179;50.968;3.134;2024-01-30T08:37:38;2.95;;;1.90;;
18104;SDS011;9179;50.968;3.134;2024-01-30T08:40:07;9.68;;;2.67;;
18104;SDS011;9179;50.968;3.134;2024-01-30T08:42:35;2.70;;;2.50;;
18104;SDS011;9179;50.968;3.134;2024-01-30T08:45:02;1.90;;;1.77;;
18104;SDS011;9179;50.968;3.134;2024-01-30T08:47:30;5.45;;;2.10;;
18104;SDS011;9179;50.968;3.134;2024-01-30T08:49:58;5.70;;;1.63;;
18104;SDS011;9179;50.968;3.134;2024-01-30T08:52:25;6.13;;;3.05;;
18104;SDS011;9179;50.968;3.134;2024-01-30T08:54:52;5.60;;;2.13;;
18104;SDS011;9179;50.968;3.134;2024-01-30T08:57:20;2.03;;;1.83;;
18104;SDS011;9179;50.968;3.134;2024-01-30T08:59:47;3.10;;;1.70;;
18104;SDS011;9179;50.968;3.134;2024-01-30T09:02:14;4.70;;;2.03;;
18104;SDS011;9179;50.968;3.134;2024-01-30T09:04:43;1.20;;;1.10;;
18104;SDS011;9179;50.968;3.134;2024-01-30T09:07:10;1.25;;;1.10;;
18104;SDS011;9179;50.968;3.134;2024-01-30T09:09:38;0.85;;;0.85;;
18104;SDS011;9179;50.968;3.134;2024-01-30T09:12:06;2.50;;;1.10;;
18104;SDS011;9179;50.968;3.134;2024-01-30T09:14:36;1.70;;;0.93;;
18104;SDS011;9179;50.968;3.134;2024-01-30T09:17:03;2.75;;;1.00;;
18104;SDS011;9179;50.968;3.134;2024-01-30T09:19:30;2.50;;;1.25;;
18104;SDS011;9179;50.968;3.134;2024-01-30T09:21:57;2.50;;;1.83;;
18104;SDS011;9179;50.968;3.134;2024-01-30T09:24:25;2.63;;;1.10;;
18104;SDS011;9179;50.968;3.134;2024-01-30T09:26:52;2.38;;;1.25;;
18104;SDS011;9179;50.968;3.134;2024-01-30T09:29:19;0.95;;;0.90;;
18104;SDS011;9179;50.968;3.134;2024-01-30T09:31:47;0.90;;;0.90;;
18104;SDS011;9179;50.968;3.134;2024-01-30T09:34:14;5.60;;;1.10;;
18104;SDS011;9179;50.968;3.134;2024-01-30T09:36:41;1.60;;;1.10;;
18104;SDS011;9179;50.968;3.134;2024-01-30T09:39:08;2.70;;;1.27;;
18104;SDS011;9179;50.968;3.134;2024-01-30T09:41:36;1.30;;;1.10;;
18104;SDS011;9179;50.968;3.134;2024-01-30T09:44:11;1.00;;;0.90;;
18104;SDS011;9179;50.968;3.134;2024-01-30T09:46:38;1.20;;;1.10;;
18104;SDS011;9179;50.968;3.134;2024-01-30T09:49:07;3.70;;;1.20;;
18104;SDS011;9179;50.968;3.134;2024-01-30T09:51:36;1.00;;;0.98;;
18104;SDS011;9179;50.968;3.134;2024-01-30T09:54:03;1.10;;;1.00;;
18104;SDS011;9179;50.968;3.134;2024-01-30T09:56:30;2.85;;;1.40;;
18104;SDS011;9179;50.968;3.134;2024-01-30T09:58:57;2.42;;;1.75;;
18104;SDS011;9179;50.968;3.134;2024-01-30T10:01:24;4.00;;;1.67;;
18104;SDS011;9179;50.968;3.134;2024-01-30T10:03:52;1.70;;;1.42;;
18104;SDS011;9179;50.968;3.134;2024-01-30T10:06:21;2.88;;;1.30;;
18104;SDS011;9179;50.968;3.134;2024-01-30T10:08:48;2.65;;;1.88;;
18104;SDS011;9179;50.968;3.134;2024-01-30T10:11:15;1.48;;;1.33;;
18104;SDS011;9179;50.968;3.134;2024-01-30T10:13:42;2.42;;;1.40;;
18104;SDS011;9179;50.968;3.134;2024-01-30T10:16:09;1.15;;;1.08;;
18104;SDS011;9179;50.968;3.134;2024-01-30T10:18:36;3.72;;;1.25;;
18104;SDS011;9179;50.968;3.134;2024-01-30T10:21:03;2.42;;;1.50;;
18104;SDS011;9179;50.968;3.134;2024-01-30T10:23:32;2.78;;;1.38;;
18104;SDS011;9179;50.968;3.134;2024-01-30T10:25:59;3.05;;;1.55;;
18104;SDS011;9179;50.968;3.134;2024-01-30T10:28:26;2.78;;;1.40;;
18104;SDS011;9179;50.968;3.134;2024-01-30T10:30:58;3.20;;;1.70;;
18104;SDS011;9179;50.968;3.134;2024-01-30T10:33:25;2.95;;;1.50;;
18104;SDS011;9179;50.968;3.134;2024-01-30T10:35:54;4.07;;;1.45;;
18104;SDS011;9179;50.968;3.134;2024-01-30T10:38:24;4.32;;;1.50;;
18104;SDS011;9179;50.968;3.134;2024-01-30T10:40:56;1.48;;;1.20;;
18104;SDS011;9179;50.968;3.134;2024-01-30T10:43:24;2.63;;;1.40;;
18104;SDS011;9179;50.968;3.134;2024-01-30T10:45:58;2.40;;;1.73;;
18104;SDS011;9179;50.968;3.134;2024-01-30T10:48:33;2.08;;;1.38;;
18104;SDS011;9179;50.968;3.134;2024-01-30T10:51:09;2.90;;;1.65;;
18104;SDS011;9179;50.968;3.134;2024-01-30T10:53:38;3.20;;;1.50;;
18104;SDS011;9179;50.968;3.134;2024-01-30T10:56:07;2.17;;;1.75;;
18104;SDS011;9179;50.968;3.134;2024-01-30T10:58:36;3.35;;;1.50;;
18104;SDS011;9179;50.968;3.134;2024-01-30T11:01:03;4.45;;;1.63;;
18104;SDS011;9179;50.968;3.134;2024-01-30T11:03:32;3.75;;;1.80;;
18104;SDS011;9179;50.968;3.134;2024-01-30T11:06:01;2.05;;;1.30;;
18104;SDS011;9179;50.968;3.134;2024-01-30T11:08:31;2.75;;;1.60;;
18104;SDS011;9179;50.968;3.134;2024-01-30T11:10:58;1.35;;;1.25;;
18104;SDS011;9179;50.968;3.134;2024-01-30T11:13:30;1.20;;;1.10;;
18104;SDS011;9179;50.968;3.134;2024-01-30T11:16:00;1.00;;;0.90;;
18104;SDS011;9179;50.968;3.134;2024-01-30T11:18:28;1.48;;;1.00;;
18104;SDS011;9179;50.968;3.134;2024-01-30T11:20:56;2.33;;;1.10;;
18104;SDS011;9179;50.968;3.134;2024-01-30T11:23:23;1.88;;;0.90;;
18104;SDS011;9179;50.968;3.134;2024-01-30T11:25:52;1.83;;;1.10;;
18104;SDS011;9179;50.968;3.134;2024-01-30T11:28:22;3.50;;;1.52;;
18104;SDS011;9179;50.968;3.134;2024-01-30T11:30:51;1.15;;;1.00;;
18104;SDS011;9179;50.968;3.134;2024-01-30T11:33:27;2.05;;;1.27;;
18104;SDS011;9179;50.968;3.134;2024-01-30T11:35:56;1.00;;;0.98;;
18104;SDS011;9179;50.968;3.134;2024-01-30T11:38:25;2.08;;;0.98;;
18104;SDS011;9179;50.968;3.134;2024-01-30T11:40:53;1.75;;;1.10;;
18104;SDS011;9179;50.968;3.134;2024-01-30T11:43:21;1.20;;;1.00;;
18104;SDS011;9179;50.968;3.134;2024-01-30T11:45:48;1.58;;;1.05;;
18104;SDS011;9179;50.968;3.134;2024-01-30T11:48:17;3.42;;;1.05;;
18104;SDS011;9179;50.968;3.134;2024-01-30T11:50:44;1.38;;;1.00;;
18104;SDS011;9179;50.968;3.134;2024-01-30T11:53:11;2.30;;;1.10;;
18104;SDS011;9179;50.968;3.134;2024-01-30T11:55:38;5.18;;;1.13;;
18104;SDS011;9179;50.968;3.134;2024-01-30T11:58:05;1.17;;;1.02;;
18104;SDS011;9179;50.968;3.134;2024-01-30T12:00:32;1.80;;;0.90;;
18104;SDS011;9179;50.968;3.134;2024-01-30T12:03:00;2.40;;;1.55;;
18104;SDS011;9179;50.968;3.134;2024-01-30T12:05:28;2.13;;;1.30;;
18104;SDS011;9179;50.968;3.134;2024-01-30T12:07:55;1.98;;;1.13;;
18104;SDS011;9179;50.968;3.134;2024-01-30T12:10:23;3.45;;;1.38;;
18104;SDS011;9179;50.968;3.134;2024-01-30T12:12:51;2.55;;;1.42;;
18104;SDS011;9179;50.968;3.134;2024-01-30T12:15:21;1.45;;;1.10;;
18104;SDS011;9179;50.968;3.134;2024-01-30T12:17:48;1.45;;;1.30;;
18104;SDS011;9179;50.968;3.134;2024-01-30T12:20:17;3.15;;;1.60;;
18104;SDS011;9179;50.968;3.134;2024-01-30T12:22:46;2.00;;;1.10;;
18104;SDS011;9179;50.968;3.134;2024-01-30T12:25:14;2.08;;;1.52;;
18104;SDS011;9179;50.968;3.134;2024-01-30T12:27:43;3.88;;;1.60;;
18104;SDS011;9179;50.968;3.134;2024-01-30T12:30:12;1.50;;;1.40;;
18104;SDS011;9179;50.968;3.134;2024-01-30T12:32:40;2.65;;;1.33;;
18104;SDS011;9179;50.968;3.134;2024-01-30T12:35:09;2.30;;;1.52;;
18104;SDS011;9179;50.968;3.134;2024-01-30T12:37:38;1.75;;;1.40;;
18104;SDS011;9179;50.968;3.134;2024-01-30T12:40:05;3.65;;;1.40;;
18104;SDS011;9179;50.968;3.134;2024-01-30T12:42:34;1.52;;;1.35;;
18104;SDS011;9179;50.968;3.134;2024-01-30T12:45:02;3.08;;;1.58;;
18104;SDS011;9179;50.968;3.134;2024-01-30T12:47:29;1.17;;;1.10;;
18104;SDS011;9179;50.968;3.134;2024-01-30T12:49:56;2.95;;;1.27;;
18104;SDS011;9179;50.968;3.134;2024-01-30T12:52:23;4.45;;;1.45;;
18104;SDS011;9179;50.968;3.134;2024-01-30T12:54:52;3.28;;;1.88;;
18104;SDS011;9179;50.968;3.134;2024-01-30T12:57:19;1.85;;;1.20;;
18104;SDS011;9179;50.968;3.134;2024-01-30T12:59:47;6.22;;;2.85;;
18104;SDS011;9179;50.968;3.134;2024-01-30T13:02:14;3.25;;;1.35;;
18104;SDS011;9179;50.968;3.134;2024-01-30T13:04:42;1.65;;;1.52;;
18104;SDS011;9179;50.968;3.134;2024-01-30T13:07:09;4.07;;;1.73;;
18104;SDS011;9179;50.968;3.134;2024-01-30T13:09:36;2.70;;;1.45;;
18104;SDS011;9179;50.968;3.134;2024-01-30T13:12:04;2.75;;;1.77;;
18104;SDS011;9179;50.968;3.134;2024-01-30T13:14:32;2.08;;;1.58;;
18104;SDS011;9179;50.968;3.134;2024-01-30T13:16:59;2.47;;;1.90;;
18104;SDS011;9179;50.968;3.134;2024-01-30T13:19:25;3.30;;;1.70;;
18104;SDS011;9179;50.968;3.134;2024-01-30T13:21:52;3.42;;;1.80;;
18104;SDS011;9179;50.968;3.134;2024-01-30T13:24:19;3.97;;;2.35;;
18104;SDS011;9179;50.968;3.134;2024-01-30T13:26:47;5.88;;;1.95;;
18104;SDS011;9179;50.968;3.134;2024-01-30T13:29:16;5.28;;;2.58;;
18104;SDS011;9179;50.968;3.134;2024-01-30T13:31:43;2.83;;;1.85;;
18104;SDS011;9179;50.968;3.134;2024-01-30T13:34:11;4.38;;;1.70;;
18104;SDS011;9179;50.968;3.134;2024-01-30T13:36:39;4.22;;;2.05;;
18104;SDS011;9179;50.968;3.134;2024-01-30T13:39:06;4.63;;;1.85;;
18104;SDS011;9179;50.968;3.134;2024-01-30T13:41:35;9.68;;;2.22;;
18104;SDS011;9179;50.968;3.134;2024-01-30T13:44:02;2.42;;;1.77;;
18104;SDS011;9179;50.968;3.134;2024-01-30T13:46:31;3.92;;;2.03;;
18104;SDS011;9179;50.968;3.134;2024-01-30T13:48:58;4.18;;;2.13;;
18104;SDS011;9179;50.968;3.134;2024-01-30T13:51:25;2.55;;;2.05;;
18104;SDS011;9179;50.968;3.134;2024-01-30T13:53:52;4.28;;;2.53;;
18104;SDS011;9179;50.968;3.134;2024-01-30T13:56:19;4.40;;;3.13;;
18104;SDS011;9179;50.968;3.134;2024-01-30T13:58:46;2.75;;;2.35;;
18104;SDS011;9179;50.968;3.134;2024-01-30T14:01:14;2.78;;;2.20;;
18104;SDS011;9179;50.968;3.134;2024-01-30T14:03:42;3.78;;;2.40;;
18104;SDS011;9179;50.968;3.134;2024-01-30T14:06:09;4.68;;;2.28;;
18104;SDS011;9179;50.968;3.134;2024-01-30T14:08:36;4.07;;;2.88;;
18104;SDS011;9179;50.968;3.134;2024-01-30T14:11:03;3.95;;;2.75;;
18104;SDS011;9179;50.968;3.134;2024-01-30T14:13:30;9.35;;;2.50;;
18104;SDS011;9179;50.968;3.134;2024-01-30T14:15:57;2.97;;;2.75;;
18104;SDS011;9179;50.968;3.134;2024-01-30T14:18:25;3.22;;;2.40;;
18104;SDS011;9179;50.968;3.134;2024-01-30T14:20:53;4.90;;;2.47;;
18104;SDS011;9179;50.968;3.134;2024-01-30T14:23:20;4.07;;;3.25;;
18104;SDS011;9179;50.968;3.134;2024-01-30T14:25:47;3.42;;;2.67;;
18104;SDS011;9179;50.968;3.134;2024-01-30T14:28:16;4.00;;;3.10;;
18104;SDS011;9179;50.968;3.134;2024-01-30T14:30:43;2.85;;;2.45;;
18104;SDS011;9179;50.968;3.134;2024-01-30T14:33:10;4.43;;;2.78;;
18104;SDS011;9179;50.968;3.134;2024-01-30T14:35:38;6.35;;;2.70;;
18104;SDS011;9179;50.968;3.134;2024-01-30T14:38:06;3.92;;;2.55;;
18104;SDS011;9179;50.968;3.134;2024-01-30T14:40:34;4.03;;;2.50;;
18104;SDS011;9179;50.968;3.134;2024-01-30T14:43:02;3.78;;;2.70;;
18104;SDS011;9179;50.968;3.134;2024-01-30T14:45:29;5.03;;;2.78;;
18104;SDS011;9179;50.968;3.134;2024-01-30T14:47:57;5.53;;;2.70;;
18104;SDS011;9179;50.968;3.134;2024-01-30T14:50:25;3.22;;;1.77;;
18104;SDS011;9179;50.968;3.134;2024-01-30T14:52:53;3.47;;;1.92;;
18104;SDS011;9179;50.968;3.134;2024-01-30T14:55:21;2.72;;;2.35;;
18104;SDS011;9179;50.968;3.134;2024-01-30T14:57:49;4.45;;;2.50;;
18104;SDS011;9179;50.968;3.134;2024-01-30T15:00:16;4.95;;;2.60;;
18104;SDS011;9179;50.968;3.134;2024-01-30T15:02:44;6.80;;;2.65;;